createdAt,value
2022-11-29T00:00:52.846Z,0.84
2022-11-29T00:03:26.257Z,0.83
2022-11-29T00:06:01.037Z,0.81
2022-11-29T00:08:34.096Z,0.81
2022-11-29T00:11:17.910Z,0.81
2022-11-29T00:13:50.766Z,0.82
2022-11-29T00:16:23.366Z,0.82
2022-11-29T00:18:55.920Z,0.83
2022-11-29T00:21:28.787Z,0.80
2022-11-29T00:24:01.845Z,0.81
2022-11-29T00:26:34.648Z,0.80
2022-11-29T00:29:07.871Z,0.84
2022-11-29T00:31:40.740Z,0.85
2022-11-29T00:34:14.457Z,0.86
2022-11-29T00:36:47.188Z,0.86
2022-11-29T00:39:19.914Z,0.86
2022-11-29T00:41:52.552Z,0.85
2022-11-29T00:44:25.432Z,0.86
2022-11-29T00:46:58.425Z,0.88
2022-11-29T00:49:31.031Z,0.90
2022-11-29T00:52:03.592Z,0.90
2022-11-29T00:54:36.345Z,0.90
2022-11-29T00:57:08.997Z,0.88
2022-11-29T00:59:41.657Z,0.85
2022-11-29T01:02:14.426Z,0.81
2022-11-29T01:04:47.371Z,0.79
2022-11-29T01:07:20.349Z,0.79
2022-11-29T01:09:53.179Z,0.82
2022-11-29T01:12:26.082Z,0.83
2022-11-29T01:15:00.537Z,0.86
2022-11-29T01:17:35.502Z,0.86
2022-11-29T01:20:11.556Z,0.89
2022-11-29T01:22:44.792Z,0.89
2022-11-29T01:25:19.591Z,0.90
2022-11-29T01:27:52.639Z,0.92
2022-11-29T01:30:26.147Z,0.90
2022-11-29T01:32:59.246Z,0.91
2022-11-29T01:35:31.926Z,0.89
2022-11-29T01:38:04.556Z,0.88
2022-11-29T01:40:37.313Z,0.87
2022-11-29T01:43:19.951Z,0.86
2022-11-29T01:45:53.209Z,0.84
2022-11-29T01:48:32.090Z,0.86
2022-11-29T01:51:04.874Z,0.86
2022-11-29T01:53:37.503Z,0.87
2022-11-29T01:56:10.316Z,0.83
2022-11-29T01:58:44.873Z,0.83
2022-11-29T02:01:17.946Z,0.82
2022-11-29T02:03:51.067Z,0.81
2022-11-29T02:06:24.615Z,0.82
2022-11-29T02:08:57.766Z,0.84
2022-11-29T02:11:57.950Z,0.80
2022-11-29T02:14:58.640Z,0.76
2022-11-29T02:17:53.992Z,0.78
2022-11-29T02:20:33.944Z,0.80
2022-11-29T02:23:36.555Z,0.81
2022-11-29T02:26:16.662Z,0.81
2022-11-29T02:29:37.439Z,0.83
2022-11-29T02:32:47.387Z,0.85
2022-11-29T02:35:51.385Z,0.84
2022-11-29T02:38:59.084Z,0.83
2022-11-29T02:42:13.745Z,0.84
2022-11-29T02:45:22.463Z,0.84
2022-11-29T02:48:05.388Z,0.86
2022-11-29T02:51:12.879Z,0.87
2022-11-29T02:54:11.932Z,0.87
2022-11-29T02:57:09.834Z,0.86
2022-11-29T03:00:11.832Z,0.87
2022-11-29T03:03:13.231Z,0.86
2022-11-29T03:06:07.184Z,0.85
2022-11-29T03:09:10.863Z,0.84
2022-11-29T03:11:55.233Z,0.83
2022-11-29T03:14:47.763Z,0.82
2022-11-29T03:17:46.046Z,0.79
2022-11-29T03:20:26.611Z,0.75
2022-11-29T03:23:30.059Z,0.73
2022-11-29T03:26:29.077Z,0.67
2022-11-29T03:29:30.327Z,0.64
2022-11-29T03:32:13.136Z,0.63
2022-11-29T03:35:02.737Z,0.62
2022-11-29T03:37:58.058Z,0.65
2022-11-29T03:40:41.877Z,0.66
2022-11-29T03:43:33.693Z,0.63
2022-11-29T03:46:25.952Z,0.63
2022-11-29T03:49:06.155Z,0.61
2022-11-29T03:52:18.392Z,0.61
2022-11-29T03:55:30.649Z,0.59
2022-11-29T03:58:23.081Z,0.60
2022-11-29T04:01:17.020Z,0.61
2022-11-29T04:04:22.775Z,0.59
2022-11-29T04:07:24.420Z,0.61
2022-11-29T04:10:36.312Z,0.60
2022-11-29T04:13:30.603Z,0.59
2022-11-29T04:16:58.367Z,0.56
2022-11-29T04:19:56.773Z,0.52
2022-11-29T04:23:09.005Z,0.45
2022-11-29T04:25:52.043Z,0.37
2022-11-29T04:28:48.845Z,0.29
2022-11-29T04:31:59.890Z,0.22
2022-11-29T04:35:05.787Z,0.16
2022-11-29T04:38:03.495Z,0.10
2022-11-29T04:40:56.145Z,0.03
2022-11-29T04:44:17.248Z,-0.03
2022-11-29T04:47:32.566Z,-0.09
2022-11-29T04:50:24.743Z,-0.14
2022-11-29T04:53:15.961Z,-0.20
2022-11-29T04:56:05.466Z,-0.27
2022-11-29T04:59:17.720Z,-0.34
2022-11-29T05:02:34.775Z,-0.37
2022-11-29T05:05:18.089Z,-0.41
2022-11-29T05:08:35.627Z,-0.44
2022-11-29T05:11:32.032Z,-0.46
2022-11-29T05:14:29.488Z,-0.50
2022-11-29T05:17:49.494Z,-0.55
2022-11-29T05:20:44.581Z,-0.57
2022-11-29T05:23:50.695Z,-0.59
2022-11-29T05:26:33.720Z,-0.60
2022-11-29T05:29:29.334Z,-0.60
2022-11-29T05:32:25.026Z,-0.61
2022-11-29T05:35:22.073Z,-0.65
2022-11-29T05:38:04.578Z,-0.66
2022-11-29T05:41:20.394Z,-0.67
2022-11-29T05:44:31.234Z,-0.67
2022-11-29T05:47:11.410Z,-0.66
2022-11-29T05:50:09.969Z,-0.65
2022-11-29T05:53:26.915Z,-0.67
2022-11-29T05:56:29.265Z,-0.69
2022-11-29T05:59:18.966Z,-0.68
2022-11-29T06:02:23.741Z,-0.66
2022-11-29T06:05:38.616Z,-0.61
2022-11-29T06:08:18.652Z,-0.63
2022-11-29T06:11:08.989Z,-0.60
2022-11-29T06:14:13.686Z,-0.60
2022-11-29T06:17:15.227Z,-0.61
2022-11-29T06:20:24.382Z,-0.59
2022-11-29T06:23:31.984Z,-0.55
2022-11-29T06:26:34.773Z,-0.51
2022-11-29T06:29:45.385Z,-0.50
2022-11-29T06:32:46.942Z,-0.49
2022-11-29T06:35:46.580Z,-0.45
2022-11-29T06:38:27.520Z,-0.43
2022-11-29T06:41:02.551Z,-0.41
2022-11-29T06:43:36.324Z,-0.38
2022-11-29T06:46:37.578Z,-0.38
2022-11-29T06:49:29.107Z,-0.37
2022-11-29T06:52:29.280Z,-0.37
2022-11-29T06:55:18.166Z,-0.32
2022-11-29T06:58:10.545Z,-0.30
2022-11-29T07:00:50.474Z,-0.25
2022-11-29T07:04:02.362Z,-0.20
2022-11-29T07:06:36.947Z,-0.18
2022-11-29T07:09:22.021Z,-0.17
2022-11-29T07:11:55.598Z,-0.19
2022-11-29T07:14:29.221Z,-0.18
2022-11-29T07:17:09.528Z,-0.18
2022-11-29T07:19:58.812Z,-0.20
2022-11-29T07:22:52.543Z,-0.21
2022-11-29T07:26:07.611Z,-0.17
2022-11-29T07:28:51.060Z,-0.16
2022-11-29T07:32:00.258Z,-0.14
2022-11-29T07:34:57.186Z,-0.14
2022-11-29T07:37:40.354Z,-0.13
2022-11-29T07:40:26.721Z,-0.11
2022-11-29T07:43:25.642Z,-0.08
2022-11-29T07:45:59.066Z,-0.08
2022-11-29T07:48:32.032Z,-0.05
2022-11-29T07:51:04.914Z,0.03
2022-11-29T07:53:44.610Z,0.10
2022-11-29T07:56:17.208Z,0.18
2022-11-29T07:58:49.996Z,0.23
2022-11-29T08:01:23.046Z,0.29
2022-11-29T08:03:55.725Z,0.32
2022-11-29T08:06:29.181Z,0.40
2022-11-29T08:09:03.215Z,0.47
2022-11-29T08:11:36.030Z,0.49
2022-11-29T08:14:09.023Z,0.52
2022-11-29T08:16:41.742Z,0.56
2022-11-29T08:19:14.617Z,0.60
2022-11-29T08:21:48.601Z,0.62
2022-11-29T08:24:21.432Z,0.64
2022-11-29T08:26:54.791Z,0.70
2022-11-29T08:29:27.583Z,0.76
2022-11-29T08:32:00.255Z,0.82
2022-11-29T08:34:33.481Z,0.86
2022-11-29T08:37:06.529Z,0.90
2022-11-29T08:39:39.323Z,0.93
2022-11-29T08:42:12.337Z,0.94
2022-11-29T08:44:45.712Z,0.94
2022-11-29T08:47:37.151Z,0.94
2022-11-29T08:50:16.846Z,0.95
2022-11-29T08:53:09.212Z,1.00
2022-11-29T08:55:47.007Z,1.08
2022-11-29T08:58:21.339Z,1.16
2022-11-29T09:00:55.236Z,1.23
2022-11-29T09:03:35.286Z,1.27
2022-11-29T09:06:16.921Z,1.30
2022-11-29T09:08:49.588Z,1.30
2022-11-29T09:11:23.699Z,1.27
2022-11-29T09:14:01.401Z,1.25
2022-11-29T09:16:39.042Z,1.25
2022-11-29T09:19:14.756Z,1.24
2022-11-29T09:21:47.558Z,1.28
2022-11-29T09:24:20.842Z,1.35
2022-11-29T09:26:53.632Z,1.36
2022-11-29T09:29:26.227Z,1.30
2022-11-29T09:31:59.066Z,1.27
2022-11-29T09:34:31.751Z,1.27
2022-11-29T09:37:05.729Z,1.27
2022-11-29T09:39:40.504Z,1.25
2022-11-29T09:42:45.458Z,1.28
2022-11-29T09:45:21.568Z,1.30
2022-11-29T09:48:02.475Z,1.34
2022-11-29T09:50:42.890Z,1.35
2022-11-29T09:53:32.085Z,1.37
2022-11-29T09:56:41.549Z,1.40
2022-11-29T09:59:23.027Z,1.44
2022-11-29T10:02:02.917Z,1.56
2022-11-29T10:04:41.802Z,1.61
2022-11-29T10:07:40.580Z,1.66
2022-11-29T10:10:32.840Z,1.68
2022-11-29T10:13:26.974Z,1.68
2022-11-29T10:16:03.742Z,1.69
2022-11-29T10:18:59.366Z,1.69
2022-11-29T10:21:37.878Z,1.73
2022-11-29T10:24:18.544Z,1.77
2022-11-29T10:26:51.146Z,1.79
2022-11-29T10:29:24.874Z,1.80
2022-11-29T10:31:59.629Z,1.82
2022-11-29T10:34:33.458Z,1.85
2022-11-29T10:37:06.548Z,1.87
2022-11-29T10:39:57.571Z,1.86
2022-11-29T10:42:49.342Z,1.83
2022-11-29T10:45:39.228Z,1.78
2022-11-29T10:48:21.096Z,1.75
2022-11-29T10:50:55.058Z,1.73
2022-11-29T10:53:36.154Z,1.73
2022-11-29T10:56:19.578Z,1.75
2022-11-29T10:59:01.377Z,1.77
2022-11-29T11:01:41.886Z,1.83
2022-11-29T11:04:36.389Z,1.88
2022-11-29T11:07:10.964Z,1.91
2022-11-29T11:09:52.437Z,1.92
2022-11-29T11:12:31.040Z,1.95
2022-11-29T11:15:29.126Z,1.96
2022-11-29T11:18:08.025Z,2.01
2022-11-29T11:20:44.583Z,2.01
2022-11-29T11:23:37.557Z,2.01
2022-11-29T11:26:12.960Z,2.02
2022-11-29T11:29:03.052Z,2.04
2022-11-29T11:31:39.751Z,2.06
2022-11-29T11:34:40.570Z,2.14
2022-11-29T11:37:27.098Z,2.19
2022-11-29T11:40:02.838Z,2.22
2022-11-29T11:42:40.652Z,2.26
2022-11-29T11:45:18.207Z,2.31
2022-11-29T11:47:58.320Z,2.34
2022-11-29T11:50:35.830Z,2.34
2022-11-29T11:53:25.233Z,2.33
2022-11-29T11:56:04.916Z,2.32
2022-11-29T11:58:54.508Z,2.32
2022-11-29T12:01:32.123Z,2.32
2022-11-29T12:04:24.324Z,2.36
2022-11-29T12:07:51.900Z,2.38
2022-11-29T12:10:07.010Z,2.35
2022-11-29T12:12:42.869Z,2.34
2022-11-29T12:15:25.669Z,2.34
2022-11-29T12:18:14.482Z,2.32
2022-11-29T12:21:03.694Z,2.30
2022-11-29T12:24:05.178Z,2.28
2022-11-29T12:26:59.180Z,2.26
2022-11-29T12:29:20.561Z,2.24
2022-11-29T12:32:28.881Z,2.23
2022-11-29T12:35:06.367Z,2.22
2022-11-29T12:37:56.609Z,2.20
2022-11-29T12:41:05.826Z,2.21
2022-11-29T12:44:05.537Z,2.17
2022-11-29T12:46:38.816Z,2.17
2022-11-29T12:49:33.815Z,2.16
2022-11-29T12:52:14.140Z,2.14
2022-11-29T12:55:27.846Z,2.11
2022-11-29T12:58:34.853Z,2.09
2022-11-29T13:01:36.731Z,2.06
2022-11-29T13:04:26.382Z,2.02
2022-11-29T13:07:07.428Z,1.97
2022-11-29T13:10:03.795Z,1.95
2022-11-29T13:12:52.940Z,1.90
2022-11-29T13:15:33.560Z,1.87
2022-11-29T13:18:17.613Z,1.82
2022-11-29T13:21:03.049Z,1.79
2022-11-29T13:26:18.298Z,1.73
2022-11-29T13:28:51.803Z,1.69
2022-11-29T13:31:26.330Z,1.65
2022-11-29T13:34:24.918Z,1.61
2022-11-29T13:37:19.136Z,1.57
2022-11-29T13:40:04.284Z,1.53
2022-11-29T13:42:47.003Z,1.50
2022-11-29T13:45:36.894Z,1.43
2022-11-29T13:48:31.726Z,1.36
2022-11-29T13:51:34.659Z,1.31
2022-11-29T13:54:28.326Z,1.24
2022-11-29T13:57:11.811Z,1.20
2022-11-29T13:59:47.690Z,1.17
2022-11-29T14:02:32.055Z,1.15
2022-11-29T14:05:04.073Z,1.14
2022-11-29T14:07:37.078Z,1.11
2022-11-29T14:10:28.431Z,1.07
2022-11-29T14:12:57.215Z,1.03
2022-11-29T14:15:33.469Z,1.01
2022-11-29T14:18:09.214Z,0.97
2022-11-29T14:20:49.604Z,0.95
2022-11-29T14:23:43.728Z,0.91
2022-11-29T14:26:28.243Z,0.90
2022-11-29T14:28:59.674Z,0.86
2022-11-29T14:31:52.142Z,0.85
2022-11-29T14:34:29.218Z,0.83
2022-11-29T14:37:09.463Z,0.79
2022-11-29T14:39:48.357Z,0.75
2022-11-29T14:42:24.100Z,0.71
2022-11-29T14:45:01.849Z,0.66
2022-11-29T14:47:48.447Z,0.64
2022-11-29T14:50:40.659Z,0.63
2022-11-29T14:53:35.348Z,0.59
2022-11-29T14:56:35.507Z,0.57
2022-11-29T14:59:53.776Z,0.52
2022-11-29T15:02:42.797Z,0.47
2022-11-29T15:05:22.815Z,0.43
2022-11-29T15:08:21.264Z,0.42
2022-11-29T15:11:06.982Z,0.37
2022-11-29T15:14:07.742Z,0.32
2022-11-29T15:17:09.536Z,0.29
2022-11-29T15:19:52.809Z,0.26
2022-11-29T15:22:32.145Z,0.23
2022-11-29T15:25:21.507Z,0.20
2022-11-29T15:28:01.332Z,0.17
2022-11-29T15:30:38.557Z,0.13
2022-11-29T15:33:23.992Z,0.08
2022-11-29T15:36:00.535Z,0.05
2022-11-29T15:38:43.747Z,0.02
2022-11-29T15:41:28.909Z,0.02
2022-11-29T15:44:07.714Z,-0.03
2022-11-29T15:46:40.483Z,-0.08
2022-11-29T15:49:23.785Z,-0.10
2022-11-29T15:52:06.551Z,-0.11
2022-11-29T15:54:46.025Z,-0.13
2022-11-29T15:57:28.594Z,-0.16
2022-11-29T16:00:05.605Z,-0.21
2022-11-29T16:02:41.906Z,-0.25
2022-11-29T16:05:28.327Z,-0.31
2022-11-29T16:08:05.209Z,-0.34
2022-11-29T16:10:46.571Z,-0.37
2022-11-29T16:13:38.807Z,-0.38
2022-11-29T16:16:21.906Z,-0.38
2022-11-29T16:18:54.649Z,-0.38
2022-11-29T16:21:33.137Z,-0.42
2022-11-29T16:24:22.142Z,-0.44
2022-11-29T16:26:55.334Z,-0.46
2022-11-29T16:29:37.530Z,-0.50
2022-11-29T16:32:31.064Z,-0.53
2022-11-29T16:35:20.497Z,-0.56
2022-11-29T16:37:53.912Z,-0.60
2022-11-29T16:40:32.045Z,-0.63
2022-11-29T16:43:24.225Z,-0.68
2022-11-29T16:46:26.890Z,-0.70
2022-11-29T16:49:02.753Z,-0.71
2022-11-29T16:51:49.185Z,-0.74
2022-11-29T16:54:33.553Z,-0.78
2022-11-29T16:57:07.941Z,-0.82
2022-11-29T16:59:41.372Z,-0.87
2022-11-29T17:02:15.649Z,-0.88
2022-11-29T17:04:47.843Z,-0.92
2022-11-29T17:07:25.851Z,-0.96
2022-11-29T17:09:59.148Z,-1.02
2022-11-29T17:12:31.917Z,-1.06
2022-11-29T17:15:04.822Z,-1.13
2022-11-29T17:17:37.605Z,-1.15
2022-11-29T17:20:12.677Z,-1.19
2022-11-29T17:22:45.409Z,-1.20
2022-11-29T17:25:18.104Z,-1.22
2022-11-29T17:27:51.354Z,-1.25
2022-11-29T17:30:24.140Z,-1.29
2022-11-29T17:32:56.988Z,-1.38
2022-11-29T17:35:30.640Z,-1.42
2022-11-29T17:38:03.452Z,-1.43
2022-11-29T17:40:36.146Z,-1.47
2022-11-29T17:43:09.689Z,-1.50
2022-11-29T17:45:42.456Z,-1.56
2022-11-29T17:48:15.387Z,-1.59
2022-11-29T17:50:47.975Z,-1.65
2022-11-29T17:53:20.799Z,-1.70
2022-11-29T17:55:53.626Z,-1.73
2022-11-29T17:58:26.720Z,-1.74
2022-11-29T18:01:08.014Z,-1.75
2022-11-29T18:03:42.918Z,-1.80
2022-11-29T18:06:22.657Z,-1.84
2022-11-29T18:08:59.695Z,-1.88
2022-11-29T18:11:46.996Z,-1.94
2022-11-29T18:14:16.813Z,-1.95
2022-11-29T18:16:50.343Z,-1.95
2022-11-29T18:19:25.536Z,-1.97
2022-11-29T18:21:58.432Z,-1.98
2022-11-29T18:24:31.172Z,-2.01
2022-11-29T18:27:04.709Z,-2.02
2022-11-29T18:29:46.378Z,-2.06
2022-11-29T18:32:11.927Z,-2.07
2022-11-29T18:34:45.104Z,-2.07
2022-11-29T18:37:32.859Z,-2.08
2022-11-29T18:39:53.136Z,-2.11
2022-11-29T18:42:26.252Z,-2.13
2022-11-29T18:44:59.029Z,-2.16
2022-11-29T18:47:33.314Z,-2.18
2022-11-29T18:50:08.177Z,-2.20
2022-11-29T18:52:41.008Z,-2.17
2022-11-29T18:55:14.007Z,-2.20
2022-11-29T18:57:51.046Z,-2.23
2022-11-29T19:00:24.080Z,-2.23
2022-11-29T19:02:57.752Z,-2.24
2022-11-29T19:05:30.502Z,-2.26
2022-11-29T19:08:03.663Z,-2.28
2022-11-29T19:10:38.970Z,-2.29
2022-11-29T19:13:11.845Z,-2.30
2022-11-29T19:15:44.671Z,-2.33
2022-11-29T19:18:17.655Z,-2.33
2022-11-29T19:20:51.397Z,-2.34
2022-11-29T19:23:24.216Z,-2.35
2022-11-29T19:25:56.947Z,-2.38
2022-11-29T19:28:29.642Z,-2.41
2022-11-29T19:31:02.518Z,-2.41
2022-11-29T19:33:36.671Z,-2.42
2022-11-29T19:36:12.102Z,-2.43
2022-11-29T19:38:48.866Z,-2.44
2022-11-29T19:41:29.654Z,-2.47
2022-11-29T19:44:06.350Z,-2.47
2022-11-29T19:46:42.953Z,-2.46
2022-11-29T19:49:15.801Z,-2.45
2022-11-29T19:51:48.865Z,-2.45
2022-11-29T19:54:22.369Z,-2.46
2022-11-29T19:56:56.055Z,-2.47
2022-11-29T19:59:30.224Z,-2.48
2022-11-29T20:02:03.236Z,-2.52
2022-11-29T20:04:35.913Z,-2.52
2022-11-29T20:07:09.346Z,-2.49
2022-11-29T20:09:42.574Z,-2.49
2022-11-29T20:12:15.451Z,-2.50
2022-11-29T20:14:48.237Z,-2.49
2022-11-29T20:17:21.282Z,-2.50
2022-11-29T20:19:54.051Z,-2.51
2022-11-29T20:22:26.902Z,-2.51
2022-11-29T20:24:59.796Z,-2.52
2022-11-29T20:27:33.789Z,-2.52
2022-11-29T20:30:09.930Z,-2.51
2022-11-29T20:32:43.010Z,-2.52
2022-11-29T20:35:17.575Z,-2.53
2022-11-29T20:37:55.329Z,-2.53
2022-11-29T20:40:52.719Z,-2.51
2022-11-29T20:43:59.094Z,-2.53
2022-11-29T20:46:33.446Z,-2.57
2022-11-29T20:49:06.712Z,-2.60
2022-11-29T20:51:56.176Z,-2.61
2022-11-29T20:54:30.016Z,-2.62
2022-11-29T20:57:02.909Z,-2.59
2022-11-29T20:59:35.883Z,-2.58
2022-11-29T21:02:08.993Z,-2.58
2022-11-29T21:04:41.859Z,-2.60
2022-11-29T21:07:14.638Z,-2.60
2022-11-29T21:09:48.548Z,-2.57
2022-11-29T21:12:21.843Z,-2.58
2022-11-29T21:14:54.959Z,-2.56
2022-11-29T21:17:33.515Z,-2.55
2022-11-29T21:20:03.066Z,-2.53
2022-11-29T21:23:11.811Z,-2.54
2022-11-29T21:26:02.895Z,-2.52
2022-11-29T21:28:40.694Z,-2.50
2022-11-29T21:31:15.316Z,-2.48
2022-11-29T21:33:48.374Z,-2.46
2022-11-29T21:36:21.230Z,-2.47
2022-11-29T21:38:55.400Z,-2.47
2022-11-29T21:41:28.520Z,-2.48
2022-11-29T21:44:08.848Z,-2.49
2022-11-29T21:46:36.543Z,-2.48
2022-11-29T21:49:09.905Z,-2.49
2022-11-29T21:51:43.018Z,-2.49
2022-11-29T21:54:15.811Z,-2.51
2022-11-29T21:56:49.010Z,-2.51
2022-11-29T21:59:21.669Z,-2.51
2022-11-29T22:01:55.083Z,-2.49
2022-11-29T22:04:27.958Z,-2.50
2022-11-29T22:07:00.659Z,-2.52
2022-11-29T22:09:35.171Z,-2.54
2022-11-29T22:12:31.978Z,-2.56
2022-11-29T22:14:42.555Z,-2.56
2022-11-29T22:17:15.308Z,-2.54
2022-11-29T22:19:48.036Z,-2.55
2022-11-29T22:22:20.877Z,-2.57
2022-11-29T22:24:53.510Z,-2.57
2022-11-29T22:27:26.770Z,-2.57
2022-11-29T22:29:59.494Z,-2.57
2022-11-29T22:32:32.257Z,-2.56
2022-11-29T22:35:05.170Z,-2.58
2022-11-29T22:37:37.866Z,-2.59
2022-11-29T22:40:10.910Z,-2.61
2022-11-29T22:42:43.756Z,-2.59
2022-11-29T22:45:16.509Z,-2.58
2022-11-29T22:47:49.421Z,-2.57
2022-11-29T22:50:22.006Z,-2.56
2022-11-29T22:52:55.833Z,-2.57
2022-11-29T22:55:28.565Z,-2.56
2022-11-29T22:58:01.649Z,-2.56
2022-11-29T23:00:36.260Z,-2.56
2022-11-29T23:03:08.983Z,-2.58
2022-11-29T23:05:41.750Z,-2.60
2022-11-29T23:08:14.529Z,-2.60
2022-11-29T23:10:58.068Z,-2.60
2022-11-29T23:13:32.490Z,-2.61
2022-11-29T23:16:08.565Z,-2.64
2022-11-29T23:18:42.662Z,-2.65
2022-11-29T23:21:19.991Z,-2.67
2022-11-29T23:23:56.586Z,-2.68
2022-11-29T23:26:39.780Z,-2.73
2022-11-29T23:29:16.867Z,-2.73
2022-11-29T23:31:50.118Z,-2.73
2022-11-29T23:34:23.205Z,-2.73
2022-11-29T23:36:55.797Z,-2.71
2022-11-29T23:39:28.412Z,-2.72
2022-11-29T23:42:01.089Z,-2.74
2022-11-29T23:44:34.463Z,-2.75
2022-11-29T23:47:07.428Z,-2.77
2022-11-29T23:49:40.185Z,-2.78
2022-11-29T23:52:13.714Z,-2.82
2022-11-29T23:54:47.948Z,-2.85
2022-11-29T23:57:20.888Z,-2.85
2022-11-29T23:59:53.921Z,-2.84
